Time;durP1;ratioP1;P1;durP2;ratioP2;P2;SDS_P1;SDS_P2;PMS_P1;PMS_P2;Temp;Humidity;BMP_temperature;BMP_pressure;BME280_temperature;BME280_humidity;BME280_pressure;Samples;Min_cycle;Max_cycle;Signal;HPM_P1;HPM_P2
2024/02/28 00:04:43;;;;;;;1999.90;999.90;;;;;;;0.95;100.00;101934.84;10218033;29;20082;-68
2024/02/28 00:09:46;;;;;;;1999.90;999.90;;;;;;;0.98;100.00;101932.25;10215382;29;20415;-68
2024/02/28 00:14:48;;;;;;;1999.90;999.90;;;;;;;1.15;100.00;101932.25;10215798;29;20048;-68
2024/02/28 00:19:51;;;;;;;1999.90;999.90;;;;;;;0.74;100.00;101913.34;10216289;29;20134;-68
2024/02/28 00:24:53;;;;;;;1999.90;999.90;;;;;;;1.02;100.00;101911.59;10216122;29;20485;-68
2024/02/28 00:29:55;;;;;;;1999.90;999.90;;;;;;;1.03;100.00;101917.66;10216594;29;20056;-68
2024/02/28 00:34:58;;;;;;;1999.90;999.90;;;;;;;0.95;100.00;101915.06;10215697;29;20393;-69
2024/02/28 00:40:00;;;;;;;1999.90;999.90;;;;;;;1.12;100.00;101920.22;10199404;29;20055;-69
2024/02/28 00:45:03;;;;;;;1999.90;999.90;;;;;;;0.87;100.00;101921.91;10214842;29;20086;-69
2024/02/28 00:50:06;;;;;;;1999.90;999.90;;;;;;;0.77;100.00;101915.88;10199186;29;20138;-68
2024/02/28 00:55:08;;;;;;;1999.90;999.90;;;;;;;0.77;100.00;101909.88;10214143;29;20531;-68
2024/02/28 01:00:11;;;;;;;1999.90;999.90;;;;;;;0.72;100.00;101907.28;10215486;29;20427;-68
2024/02/28 01:05:13;;;;;;;1999.90;999.90;;;;;;;1.00;100.00;101922.78;10215453;29;20047;-68
2024/02/28 01:10:16;;;;;;;1999.90;999.90;;;;;;;0.78;100.00;101914.19;10214968;29;20419;-68
2024/02/28 01:15:18;;;;;;;1999.90;999.90;;;;;;;0.85;100.00;101916.75;10215085;29;20052;-68
2024/02/28 01:20:21;;;;;;;1999.90;999.90;;;;;;;0.81;100.00;101904.75;10214419;29;20056;-68
2024/02/28 01:25:23;;;;;;;1999.90;999.90;;;;;;;0.96;100.00;101911.63;10214915;29;20079;-68
2024/02/28 01:30:26;;;;;;;1999.90;999.90;;;;;;;0.82;100.00;101910.75;10214349;29;20047;-68
2024/02/28 01:35:28;;;;;;;1999.90;999.90;;;;;;;0.82;100.00;101918.47;10212872;29;20403;-68
2024/02/28 01:40:30;;;;;;;1999.90;999.90;;;;;;;0.78;100.00;101909.03;10214633;29;20062;-68
2024/02/28 01:45:33;;;;;;;1999.90;999.90;;;;;;;0.92;100.00;101913.34;10213277;29;20086;-68
2024/02/28 01:50:36;;;;;;;1999.90;999.90;;;;;;;1.39;100.00;101933.97;10213150;29;20451;-69
2024/02/28 01:55:39;;;;;;;1999.90;999.90;;;;;;;0.92;100.00;101926.25;10212549;29;20135;-68
2024/02/28 02:00:42;;;;;;;1999.90;999.90;;;;;;;1.21;100.00;101927.97;10197536;29;20058;-68
2024/02/28 02:05:44;;;;;;;1999.90;999.90;;;;;;;1.08;100.00;101932.25;10212996;29;20079;-68
2024/02/28 02:10:47;;;;;;;1999.90;999.90;;;;;;;1.04;100.00;101921.94;10213624;29;20087;-68
2024/02/28 02:15:49;;;;;;;1999.90;999.90;;;;;;;0.87;100.00;101922.78;10213881;29;20127;-68
2024/02/28 02:21:02;;;;;;;1999.90;999.90;;;;;;;1.29;100.00;101927.94;10213296;29;20055;-68
2024/02/28 02:26:05;;;;;;;1999.90;999.90;;;;;;;0.83;100.00;101923.63;10213207;29;20047;-68
2024/02/28 02:31:07;;;;;;;1999.90;999.90;;;;;;;0.88;100.00;101924.50;10216512;29;20139;-68
2024/02/28 02:36:10;;;;;;;1999.90;999.90;;;;;;;0.98;100.00;101925.38;10220204;29;20047;-68
2024/02/28 02:41:12;;;;;;;1999.90;999.90;;;;;;;0.88;100.00;101924.50;10221240;29;20131;-68
2024/02/28 02:46:15;;;;;;;1999.90;999.90;;;;;;;0.79;100.00;101923.63;10219420;29;20079;-68
2024/02/28 02:51:18;;;;;;;1999.90;999.90;;;;;;;0.55;100.00;101938.19;10219290;29;20132;-68
2024/02/28 02:56:21;;;;;;;1999.90;999.90;;;;;;;0.69;100.00;101935.63;10202655;29;20392;-68
2024/02/28 03:01:23;;;;;;;1999.90;999.90;;;;;;;0.90;100.00;101943.41;10220001;29;20053;-68
2024/02/28 03:06:26;;;;;;;1999.90;999.90;;;;;;;0.93;100.00;101934.81;10219167;29;20051;-68
2024/02/28 03:11:28;;;;;;;1999.90;999.90;;;;;;;1.02;100.00;101950.28;10217697;29;20448;-68
2024/02/28 03:16:30;;;;;;;1999.90;999.90;;;;;;;1.05;100.00;101941.72;10219365;29;20106;-68
2024/02/28 03:21:33;;;;;;;1999.90;999.90;;;;;;;1.02;100.00;101939.13;10219259;29;20060;-68
2024/02/28 03:26:35;;;;;;;1999.90;999.90;;;;;;;0.98;100.00;101950.31;10201644;29;20051;-68
2024/02/28 03:31:37;;;;;;;1999.90;999.90;;;;;;;0.53;100.00;101937.34;10218871;29;20051;-68
2024/02/28 03:36:40;;;;;;;1999.90;999.90;;;;;;;0.86;100.00;101930.53;10218629;29;20139;-68
2024/02/28 03:41:42;;;;;;;1999.90;999.90;;;;;;;0.66;100.00;101930.50;10218351;29;20048;-68
2024/02/28 03:46:45;;;;;;;1999.90;999.90;;;;;;;0.72;100.00;101938.22;10217731;29;20047;-68
2024/02/28 03:51:47;;;;;;;1999.90;999.90;;;;;;;0.73;100.00;101937.38;10218104;29;20082;-68
2024/02/28 03:56:50;;;;;;;1999.90;999.90;;;;;;;0.69;100.00;101927.91;10217178;29;20075;-68
2024/02/28 04:01:52;;;;;;;1999.90;999.90;;;;;;;0.90;100.00;101927.94;10216549;29;20051;-68
2024/02/28 04:06:55;;;;;;;1999.90;999.90;;;;;;;0.93;100.00;101924.50;10200098;29;20052;-68
2024/02/28 04:11:57;;;;;;;1999.90;999.90;;;;;;;0.52;100.00;101920.13;10216589;29;20118;-68
2024/02/28 04:17:00;;;;;;;1999.90;999.90;;;;;;;0.54;100.00;101923.59;10215880;29;20050;-68
2024/02/28 04:22:02;;;;;;;1999.90;999.90;;;;;;;0.85;100.00;101927.06;10215189;29;20142;-68
2024/02/28 04:27:05;;;;;;;1999.90;999.90;;;;;;;0.49;100.00;101933.88;10216749;29;20054;-68
2024/02/28 04:32:08;;;;;;;1999.90;999.90;;;;;;;0.62;100.00;101936.50;10216419;29;20059;-68
2024/02/28 04:37:10;;;;;;;1999.90;999.90;;;;;;;0.46;100.00;101945.91;10216356;29;20050;-68
2024/02/28 04:42:13;;;;;;;1999.90;999.90;;;;;;;0.46;100.00;101940.75;10216214;29;20054;-68
2024/02/28 04:47:16;;;;;;;1999.90;999.90;;;;;;;0.42;100.00;101949.31;10214748;29;20510;-68
2024/02/28 04:52:24;;;;;;;1999.90;999.90;;;;;;;0.41;100.00;101952.78;10215541;29;20075;-68
2024/02/28 04:57:27;;;;;;;1999.90;999.90;;;;;;;0.42;100.00;101954.47;10214242;29;20079;-68
2024/02/28 05:02:29;;;;;;;1999.90;999.90;;;;;;;0.64;100.00;101958.84;10213724;29;20491;-68
2024/02/28 05:07:31;;;;;;;1999.90;999.90;;;;;;;0.44;100.00;101955.31;10215319;29;20051;-68
2024/02/28 05:12:34;;;;;;;1999.90;999.90;;;;;;;0.46;100.00;101954.50;10214185;29;20048;-68
2024/02/28 05:17:37;;;;;;;1999.90;999.90;;;;;;;0.30;100.00;101955.28;10213942;29;20054;-68
2024/02/28 05:22:42;;;;;;;1999.90;999.90;;;;;;;0.49;100.00;101958.81;10214401;29;20412;-68
2024/02/28 05:27:44;;;;;;;1999.90;999.90;;;;;;;0.38;100.00;101969.06;10214919;29;20105;-68
2024/02/28 05:32:47;;;;;;;1999.90;999.90;;;;;;;0.45;100.00;101964.78;10214798;29;20135;-68
2024/02/28 05:37:54;;;;;;;1999.90;999.90;;;;;;;0.32;100.00;101969.03;10215099;29;20135;-68
2024/02/28 05:42:57;;;;;;;1999.90;999.90;;;;;;;0.33;100.00;101979.34;10214866;29;20058;-68
2024/02/28 05:47:59;;;;;;;1999.90;999.90;;;;;;;0.41;100.00;101971.66;10214511;29;20058;-68
2024/02/28 05:53:01;;;;;;;1999.90;999.90;;;;;;;0.66;100.00;101979.47;10213302;29;20064;-68
2024/02/28 05:58:04;;;;;;;1999.90;999.90;;;;;;;0.32;100.00;101976.75;10214228;29;20048;-68
2024/02/28 06:03:06;;;;;;;1999.90;999.90;;;;;;;0.49;100.00;101980.28;10214232;29;20139;-68
2024/02/28 06:08:08;;;;;;;1999.90;999.90;;;;;;;0.48;100.00;101981.13;10220753;29;20064;-68
2024/02/28 06:13:11;;;;;;;1999.90;999.90;;;;;;;0.52;100.00;101984.56;10221885;29;20052;-68
2024/02/28 06:18:13;;;;;;;1999.90;999.90;;;;;;;0.50;100.00;101978.56;10220399;29;20044;-68
2024/02/28 06:23:16;;;;;;;1999.90;999.90;;;;;;;0.67;100.00;101994.94;10221483;29;20103;-68
2024/02/28 06:28:29;;;;;;;1999.90;999.90;;;;;;;0.59;100.00;101999.22;10220504;29;20048;-68
2024/02/28 06:33:31;;;;;;;1999.90;999.90;;;;;;;0.73;100.00;102001.81;10219351;29;20438;-68
2024/02/28 06:38:37;;;;;;;1999.90;999.90;;;;;;;0.59;100.00;102012.09;10220138;29;20078;-67
2024/02/28 06:43:39;;;;;;;1999.90;999.90;;;;;;;0.40;100.00;102013.72;10219669;29;20054;-68
2024/02/28 06:48:42;;;;;;;1999.90;999.90;;;;;;;0.52;100.00;102021.53;10220976;29;20047;-68
2024/02/28 06:53:44;;;;;;;1999.90;999.90;;;;;;;0.57;100.00;102026.66;10220356;29;20051;-68
2024/02/28 06:58:47;;;;;;;1999.90;999.90;;;;;;;0.39;100.00;102040.38;10220057;29;20051;-68
2024/02/28 07:03:49;;;;;;;1999.90;999.90;;;;;;;0.57;100.00;102034.41;10220029;29;20135;-68
2024/02/28 07:08:52;;;;;;;1999.90;999.90;;;;;;;1.08;100.00;102032.00;10218940;29;20412;-68
2024/02/28 07:13:54;;;;;;;1999.90;999.90;;;;;;;0.83;100.00;102034.50;10219621;29;20060;-67
2024/02/28 07:18:56;;;;;;;1999.90;999.90;;;;;;;1.43;100.00;102050.09;10217143;29;20055;-68
2024/02/28 07:23:59;;;;;;;1999.90;999.90;;;;;;;1.62;100.00;102044.94;10219264;29;20052;-68
2024/02/28 07:29:01;;;;;;;1999.90;999.90;;;;;;;1.76;100.00;102058.69;10217452;29;20087;-68
2024/02/28 07:34:04;;;;;;;1999.90;999.90;;;;;;;1.61;100.00;102069.88;10218787;29;20062;-68
2024/02/28 07:39:07;;;;;;;1999.90;999.90;;;;;;;1.72;100.00;102074.22;10218606;29;20051;-68
2024/02/28 07:44:11;;;;;;;1999.90;999.90;;;;;;;1.89;100.00;102074.19;10218366;29;20130;-68
2024/02/28 07:49:14;;;;;;;1999.90;999.90;;;;;;;1.96;100.00;102081.91;10216516;29;20444;-68
2024/02/28 07:54:16;;;;;;;1999.90;999.90;;;;;;;2.00;100.00;102080.19;10218062;29;20047;-68
2024/02/28 07:59:19;;;;;;;1999.90;999.90;;;;;;;1.97;100.00;102086.25;10217427;29;20052;-68
2024/02/28 08:04:21;;;;;;;1999.90;999.90;;;;;;;2.07;100.00;102092.25;10215580;29;20056;-68
2024/02/28 08:09:23;;;;;;;1999.90;999.90;;;;;;;2.25;100.00;102093.94;10217310;29;20058;-68
2024/02/28 08:14:26;;;;;;;1999.90;999.90;;;;;;;2.32;100.00;102110.28;10216593;29;20460;-68
2024/02/28 08:19:29;;;;;;;1999.90;999.90;;;;;;;2.41;100.00;102112.88;10216369;29;20130;-68
2024/02/28 08:24:31;;;;;;;1999.90;999.90;;;;;;;2.54;100.00;102111.09;10216366;29;20146;-68
2024/02/28 08:29:35;;;;;;;1999.90;999.90;;;;;;;2.24;100.00;102112.91;10216558;29;20056;-68
2024/02/28 08:34:37;;;;;;;1999.90;999.90;;;;;;;2.71;100.00;102117.09;10215992;29;20491;-68
2024/02/28 08:39:40;;;;;;;1999.90;999.90;;;;;;;3.18;100.00;102120.34;10214159;29;20056;-65
2024/02/28 08:44:42;;;;;;;1999.90;999.90;;;;;;;3.43;100.00;102121.06;10198491;29;20062;-66
2024/02/28 08:49:45;;;;;;;1999.90;999.90;;;;;;;3.49;100.00;102123.56;10213809;29;20562;-66
2024/02/28 08:54:48;;;;;;;1999.90;999.90;;;;;;;3.38;100.00;102128.00;10213109;29;20051;-66
2024/02/28 08:59:51;;;;;;;1999.90;999.90;;;;;;;3.51;100.00;102139.09;10213488;29;20053;-66
2024/02/28 09:04:56;;;;;;;1999.90;999.90;;;;;;;3.43;100.00;102130.53;10215564;29;20075;-66
2024/02/28 09:09:59;;;;;;;1999.90;999.90;;;;;;;3.41;100.00;102130.53;10214784;29;20058;-66
2024/02/28 09:15:02;;;;;;;1999.90;999.90;;;;;;;3.29;100.00;102134.06;10215853;29;20134;-66
2024/02/28 09:20:06;;;;;;;1999.90;999.90;;;;;;;3.87;100.00;102139.72;10215038;29;20043;-66
2024/02/28 09:25:08;;;;;;;1999.90;999.90;;;;;;;3.89;100.00;102131.06;10221781;23;20503;-70
2024/02/28 09:30:11;;;;;;;1999.90;999.90;;;;;;;4.06;100.00;102132.66;10214323;29;20472;-71
2024/02/28 09:35:14;;;;;;;1999.90;999.90;;;;;;;4.44;100.00;102123.66;10214842;29;20052;-70
2024/02/28 09:40:16;;;;;;;1999.90;999.90;;;;;;;4.57;100.00;102114.88;10219769;29;20058;-70
2024/02/28 09:45:21;;;;;;;1999.90;999.90;;;;;;;5.40;100.00;102112.94;10227230;29;20509;-70
2024/02/28 09:50:24;;;;;;;1999.90;999.90;;;;;;;5.29;100.00;102113.06;10226597;29;20144;-70
2024/02/28 09:55:27;;;;;;;1999.90;999.90;;;;;;;4.98;100.00;102117.84;10226483;29;20052;-70
2024/02/28 10:00:29;;;;;;;1999.90;999.90;;;;;;;5.35;100.00;102125.97;10226313;29;20051;-70
2024/02/28 10:05:33;;;;;;;1999.90;999.90;;;;;;;6.47;100.00;102128.50;10228023;29;20083;-70
2024/02/28 10:10:38;;;;;;;1999.90;999.90;;;;;;;5.92;100.00;102109.50;10227758;29;20084;-70
2024/02/28 10:15:40;;;;;;;1999.90;999.90;;;;;;;6.21;100.00;102115.13;10227306;29;20063;-70
2024/02/28 10:20:43;;;;;;;1999.90;999.90;;;;;;;6.05;100.00;102123.19;10225446;29;20511;-70
2024/02/28 10:25:48;;;;;;;1999.90;999.90;;;;;;;7.10;100.00;102125.50;10227063;29;20083;-70
2024/02/28 10:30:54;;;;;;;1999.90;999.90;;;;;;;7.01;100.00;102131.75;10225916;29;20062;-71
2024/02/28 10:35:57;;;;;;;1999.90;999.90;;;;;;;6.73;100.00;102134.09;10226350;29;20480;-70
2024/02/28 10:41:01;;;;;;;1999.90;999.90;;;;;;;7.17;100.00;102125.34;10209247;29;20052;-70
2024/02/28 10:46:03;;;;;;;1999.90;999.90;;;;;;;6.71;100.00;102126.31;10209880;29;20090;-70
2024/02/28 10:51:09;;;;;;;1999.90;999.90;;;;;;;6.87;100.00;102124.25;10223783;29;20094;-71
2024/02/28 10:56:12;;;;;;;1999.90;999.90;;;;;;;6.96;100.00;102117.97;10219110;29;20051;-70
2024/02/28 11:01:14;;;;;;;1999.90;999.90;;;;;;;7.80;100.00;102109.97;10219447;29;20086;-71
2024/02/28 11:06:21;;;;;;;1999.90;999.90;;;;;;;8.03;99.39;102105.94;10218805;29;20099;-71
2024/02/28 11:11:24;;;;;;;1999.90;999.90;;;;;;;7.81;100.00;102111.69;10219786;29;20131;-70
2024/02/28 11:16:33;;;;;;;1999.90;999.90;;;;;;;7.99;100.00;102099.94;10220003;29;20055;-70
2024/02/28 11:21:36;;;;;;;1999.90;999.90;;;;;;;8.02;100.00;102096.41;10218172;29;20451;-70
2024/02/28 11:26:38;;;;;;;1999.90;999.90;;;;;;;8.41;100.00;102091.03;10217457;29;20066;-71
2024/02/28 11:31:41;;;;;;;1999.90;999.90;;;;;;;8.33;100.00;102088.63;10202287;29;20479;-70
2024/02/28 11:36:43;;;;;;;1999.90;999.90;;;;;;;8.92;97.38;102090.44;10218493;29;20143;-71
2024/02/28 11:41:46;;;;;;;1999.90;999.90;;;;;;;9.23;97.93;102086.91;10219080;29;20059;-70
2024/02/28 11:46:49;;;;;;;1999.90;999.90;;;;;;;8.35;96.43;102084.22;10218440;29;20056;-71
2024/02/28 11:51:52;;;;;;;1999.90;999.90;;;;;;;8.27;97.46;102083.56;10217202;29;20047;-71
2024/02/28 11:56:54;;;;;;;1999.90;999.90;;;;;;;9.61;94.41;102067.38;10217822;29;20483;-71
2024/02/28 12:01:59;;;;;;;1999.90;999.90;;;;;;;8.96;94.90;102065.09;10216279;29;20052;-71
2024/02/28 12:07:01;;;;;;;1999.90;999.90;;;;;;;8.68;95.29;102061.56;10217688;29;20054;-71
2024/02/28 12:12:05;;;;;;;1999.90;999.90;;;;;;;8.92;96.93;102061.72;10216386;29;20059;-70
2024/02/28 12:17:09;;;;;;;1999.90;999.90;;;;;;;8.76;96.46;102053.50;10217226;29;20135;-70
2024/02/28 12:22:12;;;;;;;1999.90;999.90;;;;;;;9.17;96.96;102040.91;10217123;29;20130;-70
2024/02/28 12:27:14;;;;;;;1999.90;999.90;;;;;;;9.20;94.02;102032.13;10216179;29;20056;-70
2024/02/28 12:32:17;;;;;;;1999.90;999.90;;;;;;;9.17;95.41;102030.47;10216087;29;20406;-70
2024/02/28 12:37:20;;;;;;;1999.90;999.90;;;;;;;9.09;94.07;102016.78;10215303;29;20086;-70
2024/02/28 12:42:22;;;;;;;1999.90;999.90;;;;;;;9.25;94.47;102020.63;10216375;29;20063;-71
2024/02/28 12:47:25;;;;;;;1999.90;999.90;;;;;;;8.64;97.53;102032.97;10216147;29;20047;-71
2024/02/28 12:52:27;;;;;;;1999.90;999.90;;;;;;;9.05;95.79;102023.88;10199318;29;20134;-71
2024/02/28 12:57:30;;;;;;;1999.90;999.90;;;;;;;9.18;94.41;102021.72;10215162;29;20526;-71
2024/02/28 13:02:32;;;;;;;1999.90;999.90;;;;;;;9.59;93.29;102021.28;10216198;29;20055;-71
2024/02/28 13:07:36;;;;;;;1999.90;999.90;;;;;;;9.79;90.52;102021.44;10198686;29;20131;-70
2024/02/28 13:12:38;;;;;;;1999.90;999.90;;;;;;;9.33;91.49;102014.28;10215796;29;20079;-70
2024/02/28 13:17:41;;;;;;;1999.90;999.90;;;;;;;8.72;94.50;102012.69;10212754;29;20055;-69
2024/02/28 13:22:44;;;;;;;1999.90;999.90;;;;;;;8.99;94.98;102020.59;10215005;29;20079;-69
2024/02/28 13:27:47;;;;;;;1999.90;999.90;;;;;;;8.61;96.15;102015.66;10198539;29;20126;-70
2024/02/28 13:32:49;;;;;;;1999.90;999.90;;;;;;;8.73;97.47;102003.97;10214929;29;20067;-69
2024/02/28 13:37:53;;;;;;;1999.90;999.90;;;;;;;8.41;98.92;102013.59;10214090;29;20484;-69
2024/02/28 13:42:55;;;;;;;1999.90;999.90;;;;;;;8.54;98.83;102012.38;10214749;29;20051;-69
2024/02/28 13:47:58;;;;;;;1999.90;999.90;;;;;;;8.96;96.71;102003.28;10212816;29;20122;-66
2024/02/28 13:53:00;;;;;;;1999.90;999.90;;;;;;;8.84;97.10;101993.19;10214442;29;20130;-69
2024/02/28 13:58:03;;;;;;;1999.90;999.90;;;;;;;9.34;94.30;101988.09;10214499;29;20044;-65
2024/02/28 14:03:08;;;;;;;1999.90;999.90;;;;;;;9.05;94.80;101981.22;10213707;29;20459;-64
2024/02/28 14:08:12;;;;;;;1999.90;999.90;;;;;;;9.36;93.51;101985.44;10214308;29;20050;-66
2024/02/28 14:13:18;;;;;;;1999.90;999.90;;;;;;;9.37;92.21;101972.31;10213023;29;20102;-65
2024/02/28 14:18:20;;;;;;;1999.90;999.90;;;;;;;9.67;92.47;101977.41;10214471;29;20131;-65
2024/02/28 14:23:23;;;;;;;1999.90;999.90;;;;;;;9.12;93.30;101967.06;10212564;29;20110;-65
2024/02/28 14:28:25;;;;;;;1999.90;999.90;;;;;;;9.04;96.03;101969.91;10218344;29;20051;-65
2024/02/28 14:33:27;;;;;;;1999.90;999.90;;;;;;;8.85;95.35;101960.97;10221386;29;20055;-65
2024/02/28 14:38:30;;;;;;;1999.90;999.90;;;;;;;9.28;94.01;101957.81;10220816;29;20114;-64
2024/02/28 14:43:33;;;;;;;1999.90;999.90;;;;;;;9.29;92.51;101953.44;10219081;29;20138;-65
2024/02/28 14:48:35;;;;;;;1999.90;999.90;;;;;;;9.36;93.62;101952.31;10220634;29;20047;-65
2024/02/28 14:53:37;;;;;;;1999.90;999.90;;;;;;;9.20;94.30;101956.38;10219318;29;20052;-64
2024/02/28 14:58:40;;;;;;;1999.90;999.90;;;;;;;9.32;93.81;101953.31;10220222;29;20052;-65
2024/02/28 15:03:42;;;;;;;1999.90;999.90;;;;;;;8.99;94.39;101950.06;10220195;29;20047;-64
2024/02/28 15:08:45;;;;;;;1999.90;999.90;;;;;;;9.26;95.06;101938.72;10219829;29;20106;-64
2024/02/28 15:13:47;;;;;;;1999.90;999.90;;;;;;;9.03;95.17;101936.00;10219771;29;20095;-64
2024/02/28 15:18:50;;;;;;;1999.90;999.90;;;;;;;9.23;95.26;101935.31;10219508;29;20059;-65
2024/02/28 15:23:52;;;;;;;1999.90;999.90;;;;;;;9.24;95.26;101934.44;10218639;29;20147;-64
2024/02/28 15:28:54;;;;;;;1999.90;999.90;;;;;;;9.51;93.01;101931.78;10219024;29;20065;-65
2024/02/28 15:33:57;;;;;;;1999.90;999.90;;;;;;;9.51;93.92;101908.25;10218864;29;20091;-65
2024/02/28 15:38:59;;;;;;;1999.90;999.90;;;;;;;9.31;94.37;101909.78;10217871;29;20051;-67
2024/02/28 15:44:02;;;;;;;1999.90;999.90;;;;;;;9.34;94.75;101912.31;10216913;29;20090;-67
2024/02/28 15:49:04;;;;;;;1999.90;999.90;;;;;;;9.55;92.45;101900.25;10218459;29;20127;-67
2024/02/28 15:54:07;;;;;;;1999.90;999.90;;;;;;;9.14;95.38;101905.16;10217087;29;20051;-67
2024/02/28 15:59:12;;;;;;;1999.90;999.90;;;;;;;9.31;95.27;101904.56;10218001;29;20059;-67
2024/02/28 16:04:14;;;;;;;1999.90;999.90;;;;;;;9.20;94.90;101901.50;10217254;29;20463;-66
2024/02/28 16:09:17;;;;;;;1999.90;999.90;;;;;;;9.34;92.69;101893.16;10217017;29;20543;-65
2024/02/28 16:14:20;;;;;;;1999.90;999.90;;;;;;;9.17;95.60;101899.81;10200924;29;20059;-64
2024/02/28 16:19:22;;;;;;;1999.90;999.90;;;;;;;9.00;95.26;101886.47;10217211;29;20062;-68
2024/02/28 16:24:29;;;;;;;1999.90;999.90;;;;;;;9.01;95.61;101893.38;10216543;29;20059;-68
2024/02/28 16:29:31;;;;;;;1999.90;999.90;;;;;;;8.92;98.39;101889.34;10216776;29;20047;-68
2024/02/28 16:34:35;;;;;;;1999.90;999.90;;;;;;;8.65;97.18;101872.81;10216961;29;20127;-68
2024/02/28 16:39:38;;;;;;;1999.90;999.90;;;;;;;8.96;97.13;101871.81;10214686;29;20060;-68
2024/02/28 16:44:41;;;;;;;1999.90;999.90;;;;;;;8.99;97.38;101859.47;10216319;29;20130;-68
2024/02/28 16:49:44;;;;;;;1999.90;999.90;;;;;;;9.01;95.99;101860.31;10215419;29;20047;-68
2024/02/28 16:54:46;;;;;;;1999.90;999.90;;;;;;;8.30;100.00;101853.84;10216235;29;20052;-68
2024/02/28 16:59:49;;;;;;;1999.90;999.90;;;;;;;8.30;100.00;101852.09;10214618;29;20051;-68
2024/02/28 17:04:52;;;;;;;1999.90;999.90;;;;;;;8.52;100.00;101849.72;10215053;29;20507;-68
2024/02/28 17:09:55;;;;;;;1999.90;999.90;;;;;;;8.60;100.00;101856.44;10215277;29;20455;-68
2024/02/28 17:14:59;;;;;;;1999.90;999.90;;;;;;;8.46;100.00;101862.97;10215232;29;20392;-68
2024/02/28 17:20:06;;;;;;;1999.90;999.90;;;;;;;8.49;100.00;101864.59;10214521;29;20177;-68
2024/02/28 17:25:09;;;;;;;1999.90;999.90;;;;;;;8.43;100.00;101864.81;10214933;29;20063;-68
2024/02/28 17:30:11;;;;;;;1999.90;999.90;;;;;;;8.23;100.00;101862.78;10214977;29;20055;-68
2024/02/28 17:35:14;;;;;;;1999.90;999.90;;;;;;;8.33;100.00;101861.59;10213713;29;20057;-68
2024/02/28 17:40:16;;;;;;;1999.90;999.90;;;;;;;7.98;100.00;101850.47;10214704;29;20091;-68
2024/02/28 17:45:22;;;;;;;1999.90;999.90;;;;;;;8.08;100.00;101854.50;10214720;29;20047;-68
2024/02/28 17:50:24;;;;;;;1999.90;999.90;;;;;;;7.91;100.00;101843.72;10214640;29;20048;-68
2024/02/28 17:55:28;;;;;;;1999.90;999.90;;;;;;;7.77;100.00;101842.38;10215010;29;20130;-68
2024/02/28 18:00:31;;;;;;;1999.90;999.90;;;;;;;7.85;100.00;101847.38;10215445;29;20054;-68
2024/02/28 18:05:33;;;;;;;1999.90;999.90;;;;;;;7.83;100.00;101836.13;10221176;29;20075;-68
2024/02/28 18:10:36;;;;;;;1999.90;999.90;;;;;;;7.67;100.00;101832.28;10221808;29;20562;-68
2024/02/28 18:15:38;;;;;;;1999.90;999.90;;;;;;;7.78;100.00;101838.88;10221891;29;20052;-68
2024/02/28 18:20:40;;;;;;;1999.90;999.90;;;;;;;7.36;100.00;101818.38;10221044;29;20507;-68
2024/02/28 18:25:43;;;;;;;1999.90;999.90;;;;;;;7.57;100.00;101829.91;10220209;29;20062;-68
2024/02/28 18:30:46;;;;;;;1999.90;999.90;;;;;;;7.71;100.00;101829.50;10220859;29;20073;-68
2024/02/28 18:35:48;;;;;;;1999.90;999.90;;;;;;;7.47;100.00;101830.22;10219473;29;20491;-68
2024/02/28 18:40:51;;;;;;;1999.90;999.90;;;;;;;7.36;100.00;101826.19;10219799;29;20130;-68
2024/02/28 18:45:53;;;;;;;1999.90;999.90;;;;;;;7.06;100.00;101820.00;10219760;29;20051;-68
2024/02/28 18:50:57;;;;;;;1999.90;999.90;;;;;;;7.55;100.00;101807.41;10203835;29;20139;-68
2024/02/28 18:56:02;;;;;;;1999.90;999.90;;;;;;;7.38;100.00;101811.34;10220484;29;20075;-68
2024/02/28 19:01:04;;;;;;;1999.90;999.90;;;;;;;7.10;100.00;101806.03;10218408;29;20126;-68
2024/02/28 19:06:07;;;;;;;1999.90;999.90;;;;;;;6.98;100.00;101795.94;10220138;29;20168;-68
2024/02/28 19:11:11;;;;;;;1999.90;999.90;;;;;;;6.99;100.00;101797.63;10217734;29;20163;-68
2024/02/28 19:16:15;;;;;;;1999.90;999.90;;;;;;;7.03;100.00;101786.25;10217855;29;20056;-68
2024/02/28 19:21:17;;;;;;;1999.90;999.90;;;;;;;6.79;100.00;101795.56;10219653;29;20052;-68
2024/02/28 19:26:20;;;;;;;1999.90;999.90;;;;;;;6.69;100.00;101801.00;10219167;29;20060;-68
2024/02/28 19:31:22;;;;;;;1999.90;999.90;;;;;;;6.45;100.00;101793.78;10219182;29;20048;-68
2024/02/28 19:36:25;;;;;;;1999.90;999.90;;;;;;;6.22;100.00;101797.81;10202131;29;20052;-68
2024/02/28 19:41:27;;;;;;;1999.90;999.90;;;;;;;6.24;100.00;101792.56;10218742;29;20053;-68
2024/02/28 19:46:30;;;;;;;1999.90;999.90;;;;;;;6.09;100.00;101776.44;10216832;29;20388;-68
2024/02/28 19:51:33;;;;;;;1999.90;999.90;;;;;;;6.23;100.00;101776.09;10217783;29;20399;-68
2024/02/28 19:56:35;;;;;;;1999.90;999.90;;;;;;;6.25;100.00;101778.66;10218230;29;20135;-68
2024/02/28 20:01:37;;;;;;;1999.90;999.90;;;;;;;6.39;100.00;101770.53;10217308;29;20047;-68
2024/02/28 20:06:41;;;;;;;1999.90;999.90;;;;;;;6.31;100.00;101768.13;10217194;29;20492;-68
2024/02/28 20:11:44;;;;;;;1999.90;999.90;;;;;;;6.32;100.00;101765.50;10217597;29;20058;-68
2024/02/28 20:16:46;;;;;;;1999.90;999.90;;;;;;;6.35;100.00;101767.16;10217889;29;20055;-68
2024/02/28 20:21:49;;;;;;;1999.90;999.90;;;;;;;6.49;100.00;101761.63;10217169;29;20051;-68
2024/02/28 20:26:51;;;;;;;1999.90;999.90;;;;;;;6.49;100.00;101762.47;10215969;29;20087;-68
2024/02/28 20:31:54;;;;;;;1999.90;999.90;;;;;;;7.03;100.00;101757.63;10216891;29;20056;-68
2024/02/28 20:36:56;;;;;;;1999.90;999.90;;;;;;;7.02;100.00;101746.34;10216713;29;20062;-68
2024/02/28 20:41:59;;;;;;;1999.90;999.90;;;;;;;6.92;100.00;101749.25;10216944;29;20099;-68
2024/02/28 20:47:01;;;;;;;1999.90;999.90;;;;;;;6.85;100.00;101738.13;10216334;29;20047;-68
2024/02/28 20:52:04;;;;;;;1999.90;999.90;;;;;;;6.83;100.00;101732.97;10216224;29;20070;-68
2024/02/28 20:57:06;;;;;;;1999.90;999.90;;;;;;;6.54;100.00;101720.72;10215513;29;20056;-68
2024/02/28 21:02:17;;;;;;;1999.90;999.90;;;;;;;6.65;100.00;101720.44;10215151;29;20510;-68
2024/02/28 21:07:20;;;;;;;1999.90;999.90;;;;;;;6.63;100.00;101720.47;10215062;29;20411;-68
2024/02/28 21:12:42;;;;;;;1999.90;999.90;;;;;;;6.39;100.00;101714.16;10214455;29;20056;-68
2024/02/28 21:17:45;;;;;;;1999.90;999.90;;;;;;;6.43;100.00;101717.53;10215140;29;20054;-68
2024/02/28 21:22:48;;;;;;;1999.90;999.90;;;;;;;6.32;100.00;101707.38;10214242;29;20500;-68
2024/02/28 21:27:50;;;;;;;1999.90;999.90;;;;;;;6.08;100.00;101701.06;10214482;29;20119;-68
2024/02/28 21:32:54;;;;;;;1999.90;999.90;;;;;;;5.95;100.00;101709.13;10213169;29;20154;-68
2024/02/28 21:37:57;;;;;;;1999.90;999.90;;;;;;;6.01;100.00;101692.56;10220821;23;20563;-68
2024/02/28 21:42:59;;;;;;;1999.90;999.90;;;;;;;6.09;100.00;101679.38;10213686;29;20047;-68
2024/02/28 21:48:01;;;;;;;1999.90;999.90;;;;;;;5.88;100.00;101670.31;10212912;29;20403;-68
2024/02/28 21:53:04;;;;;;;1999.90;999.90;;;;;;;5.81;100.00;101671.34;10213724;29;20058;-68
2024/02/28 21:58:08;;;;;;;1999.90;999.90;;;;;;;5.69;100.00;101668.13;10213347;29;20054;-68
2024/02/28 22:03:11;;;;;;;1999.90;999.90;;;;;;;5.56;100.00;101669.31;10213856;29;20052;-68